Jackson, MS

1:40 AM CDT on March 30, 2015 (GMT -0500)
Hawkins | | Change Station
CLOSE
Current Station
Airport
Location: Jackson Hawkins Field,
Elevation: 341 ft
Nearby Weather Stations

Elev 341 ft 32.33 °N, 90.22 °W | Updated 47 minutes ago

Partly Cloudy
Partly Cloudy
62 °F
Feels Like 62 °F
N
7
Wind Variable Wind from South

Today
High -- | Low -- °F
--% Chance of Precip.
Yesterday
High -- | Low -- °F
Precip. -- in
6:51 AM 7:19 PM
Waxing Gibbous, 77% visible
Pressure 30.16 in
Visibility 10.0 miles
Clouds Few 3000 ft
Dew Point 58 °F
Humidity 86%
Rainfall 0.00 in
Snow Depth Not available.
UV 0 out of 12
Pollen 10.60 out of 12
Air Quality Not available.
Flu Activity Not available.
METAR KHKS 300553Z AUTO 19006KT 10SM FEW030 17/14 A3018 RMK AO2 SLP211 T01670144 10239 20167 402670061 50013

More Conditions Fewer Conditions

Pressure 30.16 in
Visibility 10.0 miles
Clouds Few 3000 ft
Dew Point 58 °F
Humidity 86%
Rainfall 0.00 in
Snow Depth Not available.
UV 0 out of 12
Pollen 10.60 out of 12
Air Quality Not available.
Flu Activity Not available.
METAR KHKS 300553Z AUTO 19006KT 10SM FEW030 17/14 A3018 RMK AO2 SLP211 T01670144 10239 20167 402670061 50013

More Conditions Fewer Conditions

10-Day Weather Forecast

Almanac

Astronomy

Mar. 30, 2015 Rise Set
Actual Time
Civil Twilight
Nautical Twilight
Astronomical Twilight
Moon
Length of Visible Light
Length of Day
Tomorrow will be .
, % of the Moon is Illuminated

Today's Extremes

State Highs State Lows

Community

WunderPhotos

Upload Photos

1,809,439 photos uploaded!

WunderBlogs® & News

Nearby

Air Quality

  Air Quality AQ Index Pollutant
Not available.

Snow Depth

Station Depth Elevation

Earthquake Activity

City Distance Mag. Time & Date
Minimum magnitude displayed is 2.5.

Coastal Water Temperatures

Place Temperature

Stations

Nearby Weather Stations

Station Location Temp. Windchill Dew Point Humidity Wind Precip. Elev Updated Type